Time;durP1;ratioP1;P1;durP2;ratioP2;P2;SDS_P1;SDS_P2;PMS_P1;PMS_P2;Temp;Humidity;BMP_temperature;BMP_pressure;BME280_temperature;BME280_humidity;BME280_pressure;Samples;Min_cycle;Max_cycle;Signal;HPM_P1;HPM_P2
2022/05/21 00:01:42;;;;;;;14.75;4.32;;;;;;;;;;4975235;28;20101;-62
2022/05/21 00:04:10;;;;;;;14.40;4.13;;;;;;;;;;5045471;28;20033;-61
2022/05/21 00:06:37;;;;;;;16.15;4.53;;;;;;;;;;5044637;28;20028;-61
2022/05/21 00:09:06;;;;;;;16.20;4.03;;;;;;;;;;5044534;28;20041;-62
2022/05/21 00:11:33;;;;;;;17.23;4.38;;;;;;;;;;5048106;28;20059;-60
2022/05/21 00:14:02;;;;;;;16.73;4.50;;;;;;;;;;5043069;28;20106;-61
2022/05/21 00:16:31;;;;;;;13.98;3.53;;;;;;;;;;5043728;28;20486;-63
2022/05/21 00:18:58;;;;;;;14.38;3.35;;;;;;;;;;5049919;28;20133;-60
2022/05/21 00:21:25;;;;;;;13.98;3.65;;;;;;;;;;5085444;28;20545;-61
2022/05/21 00:23:53;;;;;;;12.02;3.28;;;;;;;;;;5088247;28;20047;-61
2022/05/21 00:26:21;;;;;;;13.48;3.72;;;;;;;;;;5090546;27;20449;-61
2022/05/21 00:28:51;;;;;;;15.18;3.65;;;;;;;;;;5104657;27;20039;-61
2022/05/21 00:31:20;;;;;;;13.45;3.72;;;;;;;;;;5065340;28;20131;-61
2022/05/21 00:33:48;;;;;;;12.05;3.38;;;;;;;;;;5073761;27;20039;-61
2022/05/21 00:36:14;;;;;;;12.63;3.53;;;;;;;;;;5057543;28;20035;-61
2022/05/21 00:38:42;;;;;;;12.43;3.33;;;;;;;;;;5094298;27;20027;-61
2022/05/21 00:41:11;;;;;;;12.65;3.38;;;;;;;;;;5087655;28;20082;-61
2022/05/21 00:43:57;;;;;;;11.05;2.92;;;;;;;;;;5090701;28;20028;-61
2022/05/21 00:46:29;;;;;;;12.02;3.03;;;;;;;;;;5086838;28;20031;-61
2022/05/21 00:49:13;;;;;;;12.50;3.00;;;;;;;;;;5051454;28;20047;-61
2022/05/21 00:51:52;;;;;;;11.43;2.95;;;;;;;;;;5091814;28;20032;-61
2022/05/21 00:54:25;;;;;;;11.68;2.83;;;;;;;;;;5068737;28;20043;-61
2022/05/21 00:57:01;;;;;;;12.45;3.00;;;;;;;;;;5065505;28;20043;-60
2022/05/21 00:59:49;;;;;;;14.15;2.92;;;;;;;;;;5065657;28;20046;-62
2022/05/21 01:02:18;;;;;;;11.75;2.50;;;;;;;;;;5088903;28;20054;-59
2022/05/21 01:04:46;;;;;;;11.70;2.95;;;;;;;;;;5073967;28;20425;-59
2022/05/21 01:07:15;;;;;;;11.68;3.17;;;;;;;;;;5086654;28;20035;-59
2022/05/21 01:09:53;;;;;;;10.60;3.05;;;;;;;;;;5089908;28;20032;-61
2022/05/21 01:12:23;;;;;;;10.82;3.00;;;;;;;;;;5081272;28;20575;-61
2022/05/21 01:14:54;;;;;;;12.68;3.03;;;;;;;;;;5070496;28;20035;-61
2022/05/21 01:17:21;;;;;;;12.88;3.03;;;;;;;;;;5035680;28;20159;-62
2022/05/21 01:20:00;;;;;;;8.88;2.85;;;;;;;;;;5066960;28;20048;-62
2022/05/21 01:22:28;;;;;;;9.55;2.75;;;;;;;;;;5088704;28;20381;-62
2022/05/21 01:24:57;;;;;;;11.63;2.60;;;;;;;;;;5073463;28;20397;-61
2022/05/21 01:27:26;;;;;;;10.00;2.83;;;;;;;;;;5067312;28;20358;-62
2022/05/21 01:29:54;;;;;;;13.80;3.42;;;;;;;;;;5072505;28;20040;-61
2022/05/21 01:32:22;;;;;;;10.32;2.58;;;;;;;;;;5087019;28;20092;-62
2022/05/21 01:34:50;;;;;;;10.88;2.83;;;;;;;;;;5092014;28;20414;-61
2022/05/21 01:37:17;;;;;;;14.95;3.10;;;;;;;;;;5088088;28;20035;-61
2022/05/21 01:39:44;;;;;;;11.18;2.97;;;;;;;;;;5075808;27;20142;-61
2022/05/21 01:42:11;;;;;;;8.98;2.47;;;;;;;;;;5106063;27;20023;-61
2022/05/21 01:44:40;;;;;;;8.77;2.58;;;;;;;;;;5112236;27;20477;-60
2022/05/21 01:47:09;;;;;;;9.75;2.70;;;;;;;;;;5104271;27;20019;-60
2022/05/21 01:49:38;;;;;;;10.85;3.10;;;;;;;;;;5074962;27;20027;-60
2022/05/21 01:52:07;;;;;;;11.77;3.20;;;;;;;;;;5108235;27;20038;-59
2022/05/21 01:54:35;;;;;;;8.45;2.58;;;;;;;;;;5087316;27;20461;-60
2022/05/21 01:57:02;;;;;;;9.25;2.55;;;;;;;;;;5107773;27;20043;-59
2022/05/21 01:59:29;;;;;;;9.02;2.58;;;;;;;;;;5101689;27;20647;-60
2022/05/21 02:01:57;;;;;;;10.02;2.60;;;;;;;;;;5089598;27;20317;-59
2022/05/21 02:04:25;;;;;;;9.07;2.20;;;;;;;;;;5108993;27;20035;-62
2022/05/21 02:06:54;;;;;;;6.43;2.10;;;;;;;;;;5110932;27;20029;-59
2022/05/21 02:09:21;;;;;;;7.65;2.40;;;;;;;;;;5103726;27;20034;-59
2022/05/21 02:11:49;;;;;;;8.90;2.25;;;;;;;;;;5075038;27;20044;-59
2022/05/21 02:14:17;;;;;;;9.80;2.80;;;;;;;;;;5100623;27;20043;-60
2022/05/21 02:16:44;;;;;;;8.48;2.60;;;;;;;;;;5111209;27;20167;-59
2022/05/21 02:19:11;;;;;;;9.18;2.20;;;;;;;;;;5043075;27;20039;-60
2022/05/21 02:21:39;;;;;;;8.75;2.60;;;;;;;;;;5111036;27;20119;-59
2022/05/21 02:24:13;;;;;;;9.93;2.38;;;;;;;;;;5110424;27;20119;-60
2022/05/21 02:26:40;;;;;;;7.45;2.10;;;;;;;;;;5088393;27;20063;-59
2022/05/21 02:29:08;;;;;;;6.68;1.90;;;;;;;;;;5107340;27;20259;-60
2022/05/21 02:31:36;;;;;;;7.03;2.00;;;;;;;;;;5116207;27;20031;-62
2022/05/21 02:34:03;;;;;;;8.20;2.25;;;;;;;;;;5102184;27;20136;-60
2022/05/21 02:39:27;;;;;;;8.00;2.30;;;;;;;;;;5106726;27;20400;-60
2022/05/21 02:41:58;;;;;;;7.10;2.17;;;;;;;;;;5090504;27;20528;-60
2022/05/21 02:44:26;;;;;;;8.63;2.15;;;;;;;;;;5075834;28;20122;-59
2022/05/21 02:46:55;;;;;;;7.07;2.30;;;;;;;;;;5069556;28;20028;-60
2022/05/21 02:49:24;;;;;;;7.90;2.25;;;;;;;;;;5092347;27;20059;-60
2022/05/21 02:51:52;;;;;;;8.40;2.10;;;;;;;;;;5072640;28;20358;-61
2022/05/21 02:54:21;;;;;;;9.25;2.55;;;;;;;;;;5085429;27;20110;-62
2022/05/21 02:56:51;;;;;;;9.82;2.70;;;;;;;;;;5086408;27;20518;-59
2022/05/21 02:59:19;;;;;;;8.45;2.60;;;;;;;;;;5068068;28;20043;-60
2022/05/21 03:01:48;;;;;;;8.95;2.63;;;;;;;;;;5089052;28;20031;-62
2022/05/21 03:04:16;;;;;;;10.75;2.78;;;;;;;;;;5087293;28;20193;-59
2022/05/21 03:06:44;;;;;;;7.45;2.20;;;;;;;;;;5089496;27;20103;-59
2022/05/21 03:11:57;;;;;;;9.52;2.10;;;;;;;;;;5087469;28;20168;-59
2022/05/21 03:14:26;;;;;;;7.07;2.15;;;;;;;;;;5085634;28;20421;-59
2022/05/21 03:16:59;;;;;;;7.60;2.00;;;;;;;;;;5096268;27;20572;-59
2022/05/21 03:19:29;;;;;;;8.63;2.25;;;;;;;;;;5090856;27;20036;-60
2022/05/21 03:21:56;;;;;;;6.20;2.20;;;;;;;;;;5071354;28;20032;-60
2022/05/21 03:24:26;;;;;;;7.20;2.47;;;;;;;;;;5088747;28;20045;-60
2022/05/21 03:26:52;;;;;;;7.30;2.33;;;;;;;;;;5071626;28;20043;-61
2022/05/21 03:29:18;;;;;;;7.18;2.25;;;;;;;;;;5086570;28;20032;-60
2022/05/21 03:31:45;;;;;;;6.38;2.33;;;;;;;;;;5054804;28;20051;-62
2022/05/21 03:34:12;;;;;;;7.68;2.20;;;;;;;;;;5083878;28;20031;-60
2022/05/21 03:36:39;;;;;;;9.13;2.22;;;;;;;;;;5090451;28;20541;-60
2022/05/21 03:39:07;;;;;;;7.72;2.55;;;;;;;;;;5065084;28;20036;-60
2022/05/21 03:41:36;;;;;;;9.68;2.47;;;;;;;;;;5106198;27;20595;-60
2022/05/21 03:44:04;;;;;;;5.93;2.15;;;;;;;;;;5106590;27;20456;-61
2022/05/21 03:46:30;;;;;;;8.60;2.00;;;;;;;;;;5087353;28;20314;-60
2022/05/21 03:48:57;;;;;;;7.10;2.10;;;;;;;;;;5088017;27;20234;-60
2022/05/21 03:51:25;;;;;;;9.23;2.55;;;;;;;;;;5108008;27;20075;-60
2022/05/21 03:53:55;;;;;;;8.65;2.25;;;;;;;;;;5108845;27;20088;-60
2022/05/21 03:56:23;;;;;;;11.80;2.80;;;;;;;;;;5084392;28;20038;-60
2022/05/21 03:58:52;;;;;;;7.30;2.30;;;;;;;;;;5110778;27;20647;-60
2022/05/21 04:01:19;;;;;;;7.43;2.28;;;;;;;;;;5103811;27;20528;-60
2022/05/21 04:03:50;;;;;;;6.55;2.15;;;;;;;;;;5112529;27;20043;-60
2022/05/21 04:06:19;;;;;;;8.98;2.50;;;;;;;;;;5110546;27;20031;-59
2022/05/21 04:08:53;;;;;;;5.40;2.10;;;;;;;;;;5111235;27;20481;-59
2022/05/21 04:11:24;;;;;;;9.07;2.25;;;;;;;;;;5113769;27;20393;-59
2022/05/21 04:13:52;;;;;;;9.15;2.40;;;;;;;;;;5095575;27;20035;-60
2022/05/21 04:16:21;;;;;;;8.27;2.10;;;;;;;;;;5105418;27;20058;-60
2022/05/21 04:18:49;;;;;;;6.28;1.95;;;;;;;;;;5113623;27;20090;-60
2022/05/21 04:21:17;;;;;;;7.10;2.03;;;;;;;;;;5115266;27;20491;-60
2022/05/21 04:23:53;;;;;;;8.07;2.17;;;;;;;;;;5109447;27;20135;-60
2022/05/21 04:26:23;;;;;;;7.50;2.30;;;;;;;;;;5095575;27;20039;-60
2022/05/21 04:28:52;;;;;;;7.45;2.20;;;;;;;;;;5113102;27;20027;-60
2022/05/21 04:31:20;;;;;;;8.38;2.17;;;;;;;;;;5108258;27;20045;-60
2022/05/21 04:33:48;;;;;;;8.93;2.28;;;;;;;;;;5113226;27;20031;-60
2022/05/21 04:36:18;;;;;;;7.63;2.22;;;;;;;;;;5109540;27;20023;-59
2022/05/21 04:38:50;;;;;;;12.13;2.50;;;;;;;;;;5113533;27;20039;-60
2022/05/21 04:41:16;;;;;;;8.32;2.35;;;;;;;;;;5093858;27;20079;-60
2022/05/21 04:43:43;;;;;;;10.77;2.50;;;;;;;;;;5078501;27;20027;-61
2022/05/21 04:46:11;;;;;;;7.82;2.60;;;;;;;;;;5079970;28;20055;-61
2022/05/21 04:48:38;;;;;;;9.25;2.50;;;;;;;;;;5053023;27;20034;-59
2022/05/21 04:51:07;;;;;;;7.90;2.60;;;;;;;;;;5092290;27;20483;-59
2022/05/21 04:53:35;;;;;;;9.70;2.85;;;;;;;;;;5097054;27;20031;-59
2022/05/21 04:56:03;;;;;;;7.07;2.50;;;;;;;;;;5101857;27;20093;-59
2022/05/21 04:58:32;;;;;;;9.50;2.80;;;;;;;;;;5102607;27;20031;-60
2022/05/21 05:01:01;;;;;;;8.27;2.90;;;;;;;;;;5086335;27;20031;-59
2022/05/21 05:03:27;;;;;;;10.40;2.92;;;;;;;;;;5110164;27;20019;-60
2022/05/21 05:06:06;;;;;;;8.88;3.17;;;;;;;;;;5105166;27;20071;-62
2022/05/21 05:08:34;;;;;;;10.48;2.80;;;;;;;;;;5114175;27;20100;-60
2022/05/21 05:11:00;;;;;;;9.02;2.70;;;;;;;;;;5096883;27;20028;-60
2022/05/21 05:13:29;;;;;;;9.40;2.75;;;;;;;;;;5091545;27;20045;-60
2022/05/21 05:15:57;;;;;;;8.48;2.33;;;;;;;;;;5113131;27;20095;-60
2022/05/21 05:18:30;;;;;;;9.75;2.47;;;;;;;;;;5080135;28;20488;-60
2022/05/21 05:21:00;;;;;;;11.48;2.65;;;;;;;;;;5088798;27;20039;-60
2022/05/21 05:23:28;;;;;;;11.35;2.88;;;;;;;;;;5114394;27;20026;-59
2022/05/21 05:25:59;;;;;;;12.85;2.95;;;;;;;;;;5101817;27;20039;-60
2022/05/21 05:28:28;;;;;;;11.27;3.55;;;;;;;;;;5104589;27;20118;-60
2022/05/21 05:30:56;;;;;;;12.68;3.22;;;;;;;;;;5106086;27;20040;-61
2022/05/21 05:33:29;;;;;;;14.60;4.13;;;;;;;;;;5098020;27;20418;-61
2022/05/21 05:35:57;;;;;;;10.93;3.33;;;;;;;;;;5098889;27;20091;-61
2022/05/21 05:38:26;;;;;;;14.50;3.50;;;;;;;;;;5094452;27;20642;-60
2022/05/21 05:40:55;;;;;;;11.95;3.72;;;;;;;;;;5087901;27;20500;-60
2022/05/21 05:43:23;;;;;;;10.13;3.15;;;;;;;;;;5096307;27;20032;-60
2022/05/21 05:45:51;;;;;;;10.50;2.80;;;;;;;;;;5073087;28;20035;-60
2022/05/21 05:48:19;;;;;;;11.82;3.35;;;;;;;;;;5072006;28;20035;-60
2022/05/21 05:50:48;;;;;;;11.18;3.08;;;;;;;;;;5086634;28;20118;-60
2022/05/21 05:53:16;;;;;;;9.93;2.83;;;;;;;;;;5087207;27;20142;-64
2022/05/21 05:55:44;;;;;;;9.35;3.38;;;;;;;;;;5089126;28;20038;-60
2022/05/21 06:00:58;;;;;;;11.90;2.83;;;;;;;;;;5091302;28;20047;-62
2022/05/21 06:03:26;;;;;;;12.18;2.97;;;;;;;;;;5090826;28;20297;-60
2022/05/21 06:05:55;;;;;;;10.50;2.80;;;;;;;;;;5092681;28;20047;-60
2022/05/21 06:08:22;;;;;;;9.82;2.63;;;;;;;;;;5065123;28;20370;-60
2022/05/21 06:10:49;;;;;;;9.77;2.65;;;;;;;;;;5096240;27;20283;-60
2022/05/21 06:13:17;;;;;;;7.35;2.60;;;;;;;;;;5055879;28;20134;-60
2022/05/21 06:15:45;;;;;;;8.73;2.10;;;;;;;;;;5074811;27;20050;-60
2022/05/21 06:18:20;;;;;;;6.10;1.95;;;;;;;;;;5071689;27;20040;-60
2022/05/21 06:20:50;;;;;;;8.77;2.47;;;;;;;;;;5075915;28;20074;-60
2022/05/21 06:23:20;;;;;;;10.68;2.25;;;;;;;;;;5076741;28;20727;-61
2022/05/21 06:25:48;;;;;;;8.50;2.25;;;;;;;;;;5092424;28;20020;-60
2022/05/21 06:28:16;;;;;;;7.60;1.83;;;;;;;;;;5078855;28;20024;-60
2022/05/21 06:30:46;;;;;;;13.40;2.42;;;;;;;;;;5058084;28;20557;-60
2022/05/21 06:33:27;;;;;;;16.27;3.30;;;;;;;;;;5071560;28;20035;-60
2022/05/21 06:36:08;;;;;;;11.05;2.60;;;;;;;;;;5059892;28;20089;-60
2022/05/21 06:38:35;;;;;;;10.75;2.63;;;;;;;;;;5067988;28;20028;-60
2022/05/21 06:41:04;;;;;;;8.98;2.40;;;;;;;;;;5083176;27;20062;-61
2022/05/21 06:43:31;;;;;;;8.18;2.30;;;;;;;;;;5071725;28;20048;-60
2022/05/21 06:45:58;;;;;;;8.05;2.30;;;;;;;;;;5061896;28;20378;-61
2022/05/21 06:48:25;;;;;;;6.30;1.85;;;;;;;;;;5064179;28;20500;-60
2022/05/21 06:50:53;;;;;;;7.75;2.30;;;;;;;;;;5069121;28;20035;-61
2022/05/21 06:53:21;;;;;;;9.77;2.47;;;;;;;;;;5086572;28;20046;-60
2022/05/21 06:55:54;;;;;;;8.60;2.22;;;;;;;;;;5068201;28;20470;-60
2022/05/21 06:58:21;;;;;;;10.50;2.22;;;;;;;;;;5088644;27;20043;-60
2022/05/21 07:00:48;;;;;;;8.10;1.95;;;;;;;;;;5073020;28;20081;-59
2022/05/21 07:03:16;;;;;;;10.93;2.53;;;;;;;;;;5071750;28;20031;-62
2022/05/21 07:08:31;;;;;;;9.40;2.42;;;;;;;;;;5091783;27;20134;-61
2022/05/21 07:10:59;;;;;;;12.95;2.58;;;;;;;;;;5084347;27;20545;-61
2022/05/21 07:13:30;;;;;;;9.05;2.22;;;;;;;;;;5075779;28;20028;-58
2022/05/21 07:15:57;;;;;;;8.15;2.00;;;;;;;;;;5090912;27;20043;-60
2022/05/21 07:18:27;;;;;;;9.95;4.88;;;;;;;;;;5060978;28;20035;-63
2022/05/21 07:20:57;;;;;;;11.43;4.28;;;;;;;;;;5057967;28;20794;-64
2022/05/21 07:23:28;;;;;;;15.05;4.60;;;;;;;;;;5081555;27;21006;-63
2022/05/21 07:25:59;;;;;;;10.43;2.88;;;;;;;;;;5058201;28;20066;-63
2022/05/21 07:28:30;;;;;;;11.73;2.95;;;;;;;;;;5067748;28;20081;-68
2022/05/21 07:30:57;;;;;;;7.95;2.15;;;;;;;;;;5080526;28;20062;-66
2022/05/21 07:33:24;;;;;;;10.52;2.38;;;;;;;;;;5048555;28;20039;-64
2022/05/21 07:35:52;;;;;;;9.25;3.00;;;;;;;;;;5079477;28;20036;-65
2022/05/21 07:38:20;;;;;;;11.70;2.80;;;;;;;;;;5074917;28;20024;-63
2022/05/21 07:40:49;;;;;;;10.02;2.38;;;;;;;;;;5074182;27;20163;-70
2022/05/21 07:43:18;;;;;;;9.55;2.15;;;;;;;;;;5073047;28;20036;-70
2022/05/21 07:45:47;;;;;;;9.80;2.28;;;;;;;;;;5055079;28;20054;-66
2022/05/21 07:48:26;;;;;;;9.57;2.17;;;;;;;;;;5080332;28;20033;-65
2022/05/21 07:50:56;;;;;;;8.55;1.98;;;;;;;;;;5073517;27;20043;-67
2022/05/21 07:53:29;;;;;;;12.68;2.00;;;;;;;;;;5063333;28;20036;-66
2022/05/21 07:55:56;;;;;;;12.70;2.53;;;;;;;;;;5065270;28;20394;-65
2022/05/21 07:58:29;;;;;;;13.48;2.20;;;;;;;;;;5063004;28;20452;-66
2022/05/21 08:00:58;;;;;;;11.75;2.15;;;;;;;;;;5049323;28;20388;-66
2022/05/21 08:03:27;;;;;;;8.35;2.45;;;;;;;;;;5073707;28;20942;-66
2022/05/21 08:05:55;;;;;;;6.20;2.08;;;;;;;;;;5043376;28;20770;-65
2022/05/21 08:08:43;;;;;;;11.57;2.00;;;;;;;;;;5079045;28;20016;-67
2022/05/21 08:11:11;;;;;;;10.05;2.10;;;;;;;;;;5070049;28;20860;-66
2022/05/21 08:13:54;;;;;;;6.95;1.98;;;;;;;;;;5068442;28;20044;-66
2022/05/21 08:16:21;;;;;;;8.80;2.60;;;;;;;;;;5021059;28;20058;-65
2022/05/21 08:18:49;;;;;;;8.23;2.17;;;;;;;;;;5034879;28;20044;-67
2022/05/21 08:21:17;;;;;;;6.38;2.10;;;;;;;;;;5042507;28;20025;-65
2022/05/21 08:29:15;;;;;;;7.60;1.88;;;;;;;;;;5042314;28;20055;-66
2022/05/21 08:31:45;;;;;;;12.02;2.70;;;;;;;;;;5047156;28;20946;-66
2022/05/21 08:34:12;;;;;;;8.15;2.17;;;;;;;;;;5031954;28;20058;-66
2022/05/21 08:36:40;;;;;;;8.63;2.00;;;;;;;;;;5049435;28;20461;-66
2022/05/21 08:39:09;;;;;;;8.73;1.83;;;;;;;;;;4991216;28;20419;-66
2022/05/21 08:41:59;;;;;;;9.57;1.98;;;;;;;;;;4996825;28;20129;-67
2022/05/21 08:44:43;;;;;;;9.57;1.95;;;;;;;;;;4999327;28;20810;-66
2022/05/21 08:47:21;;;;;;;6.82;1.80;;;;;;;;;;4980666;28;20551;-66
2022/05/21 08:50:13;;;;;;;9.98;2.10;;;;;;;;;;5002710;28;20128;-65
2022/05/21 08:52:46;;;;;;;9.02;2.30;;;;;;;;;;4985270;28;20439;-68
2022/05/21 08:55:18;;;;;;;7.47;1.60;;;;;;;;;;4993292;28;20146;-67
2022/05/21 08:57:58;;;;;;;10.95;3.05;;;;;;;;;;4999647;28;20045;-67
2022/05/21 09:00:31;;;;;;;8.07;2.20;;;;;;;;;;5001411;28;20269;-65
2022/05/21 09:03:08;;;;;;;9.35;2.20;;;;;;;;;;4996598;28;20041;-66
2022/05/21 09:05:39;;;;;;;7.88;2.10;;;;;;;;;;5006140;28;20060;-65
2022/05/21 09:08:19;;;;;;;7.00;1.92;;;;;;;;;;4992314;28;20788;-66
2022/05/21 09:11:04;;;;;;;9.38;2.20;;;;;;;;;;5013511;28;20029;-66
2022/05/21 09:13:56;;;;;;;10.35;2.85;;;;;;;;;;5010771;28;20021;-66
2022/05/21 09:19:19;;;;;;;11.02;2.40;;;;;;;;;;5018667;28;20641;-66
2022/05/21 09:21:46;;;;;;;9.95;2.80;;;;;;;;;;5003816;28;20037;-66
2022/05/21 09:24:33;;;;;;;10.73;3.17;;;;;;;;;;5020161;28;20036;-66
2022/05/21 09:27:02;;;;;;;9.23;3.08;;;;;;;;;;5017375;28;20910;-66
2022/05/21 09:29:33;;;;;;;12.52;3.17;;;;;;;;;;5001675;28;20039;-66
2022/05/21 09:32:19;;;;;;;12.55;3.10;;;;;;;;;;4997376;28;20077;-66
2022/05/21 09:35:01;;;;;;;14.93;2.95;;;;;;;;;;5004330;28;20041;-66
2022/05/21 09:37:30;;;;;;;9.45;2.63;;;;;;;;;;5059540;28;20055;-66
2022/05/21 09:40:00;;;;;;;9.27;2.95;;;;;;;;;;5045652;28;20040;-66
2022/05/21 09:45:32;;;;;;;11.35;2.58;;;;;;;;;;5080753;27;20047;-72
2022/05/21 09:48:27;;;;;;;8.00;2.47;;;;;;;;;;5057846;28;20040;-71
2022/05/21 09:50:57;;;;;;;8.05;2.28;;;;;;;;;;5015411;28;20049;-71
2022/05/21 09:53:31;;;;;;;9.40;2.30;;;;;;;;;;5024166;28;20131;-71
2022/05/21 09:56:05;;;;;;;8.00;1.98;;;;;;;;;;4999798;28;20077;-71
2022/05/21 09:58:34;;;;;;;8.15;2.03;;;;;;;;;;5006517;28;20053;-71
2022/05/21 10:01:00;;;;;;;8.52;2.15;;;;;;;;;;5000932;28;20052;-71
2022/05/21 10:03:49;;;;;;;9.02;2.17;;;;;;;;;;5005936;28;20053;-71
2022/05/21 10:06:37;;;;;;;8.05;1.70;;;;;;;;;;5017167;28;20025;-72
2022/05/21 10:12:42;;;;;;;6.78;1.60;;;;;;;;;;5020136;28;20090;-72
2022/05/21 10:15:20;;;;;;;7.88;1.40;;;;;;;;;;5019445;28;20048;-72
2022/05/21 10:17:49;;;;;;;4.53;1.10;;;;;;;;;;5021283;28;20049;-72
2022/05/21 10:20:34;;;;;;;5.90;1.38;;;;;;;;;;5002899;28;20441;-72
2022/05/21 10:23:22;;;;;;;4.40;1.20;;;;;;;;;;5019488;28;20047;-70
2022/05/21 10:26:04;;;;;;;4.85;1.10;;;;;;;;;;5029032;28;20432;-71
2022/05/21 10:28:50;;;;;;;5.75;1.17;;;;;;;;;;5100433;27;20040;-72
2022/05/21 10:31:27;;;;;;;7.97;1.75;;;;;;;;;;5108075;27;20716;-71
2022/05/21 10:34:16;;;;;;;8.35;1.70;;;;;;;;;;5103861;27;20031;-71
2022/05/21 10:37:04;;;;;;;6.07;1.50;;;;;;;;;;5102689;27;20461;-71
2022/05/21 10:39:36;;;;;;;4.75;1.33;;;;;;;;;;5060796;28;20159;-71
2022/05/21 10:42:15;;;;;;;5.20;1.20;;;;;;;;;;5058093;28;20052;-71
2022/05/21 10:44:51;;;;;;;6.45;1.40;;;;;;;;;;5059902;28;20032;-72
2022/05/21 10:47:43;;;;;;;6.00;1.23;;;;;;;;;;5064954;28;20055;-72
2022/05/21 10:50:13;;;;;;;7.10;1.40;;;;;;;;;;5066872;28;20028;-70
2022/05/21 10:53:09;;;;;;;5.75;1.27;;;;;;;;;;5025030;28;20040;-71
2022/05/21 10:55:41;;;;;;;7.10;1.50;;;;;;;;;;5022421;28;20043;-64
2022/05/21 10:58:23;;;;;;;6.75;1.40;;;;;;;;;;5018987;28;20107;-65
2022/05/21 11:01:11;;;;;;;4.30;1.10;;;;;;;;;;5026485;28;20434;-64
2022/05/21 11:03:57;;;;;;;7.00;1.50;;;;;;;;;;5029758;28;20025;-66
2022/05/21 11:06:52;;;;;;;5.80;1.35;;;;;;;;;;5025230;28;20032;-63
2022/05/21 11:09:29;;;;;;;4.90;1.20;;;;;;;;;;5017607;28;20045;-63
2022/05/21 11:12:07;;;;;;;4.75;1.00;;;;;;;;;;5019431;28;20133;-63
2022/05/21 11:14:37;;;;;;;6.03;1.20;;;;;;;;;;5020088;28;20939;-63
2022/05/21 11:17:08;;;;;;;6.47;1.30;;;;;;;;;;5027785;28;20049;-66
2022/05/21 11:19:36;;;;;;;5.05;1.05;;;;;;;;;;5030201;28;20041;-66
2022/05/21 11:22:08;;;;;;;6.47;1.33;;;;;;;;;;5026405;28;20532;-69
2022/05/21 11:24:50;;;;;;;5.32;1.30;;;;;;;;;;4994712;28;20021;-69
2022/05/21 11:27:27;;;;;;;3.83;1.02;;;;;;;;;;5020863;28;21644;-68
2022/05/21 11:30:09;;;;;;;9.27;1.35;;;;;;;;;;5009441;28;20147;-68
2022/05/21 11:38:54;;;;;;;4.78;1.10;;;;;;;;;;5080862;28;20496;-70
2022/05/21 11:41:29;;;;;;;7.22;1.02;;;;;;;;;;5080747;27;20058;-68
2022/05/21 11:47:20;;;;;;;6.57;1.20;;;;;;;;;;5084170;28;20174;-67
2022/05/21 11:49:48;;;;;;;;;;;;;;;;;;5063848;28;21598;-65
2022/05/21 11:52:31;;;;;;;3.20;1.00;;;;;;;;;;5078024;28;20023;-65
2022/05/21 11:55:17;;;;;;;3.92;1.13;;;;;;;;;;5060650;28;20048;-66
2022/05/21 11:57:57;;;;;;;4.95;1.13;;;;;;;;;;5083844;28;20035;-67
2022/05/21 12:00:26;;;;;;;6.88;1.10;;;;;;;;;;5061959;28;20530;-66
2022/05/21 12:03:06;;;;;;;5.75;1.00;;;;;;;;;;5081973;28;20032;-68
2022/05/21 12:05:56;;;;;;;5.20;1.20;;;;;;;;;;5080738;28;20472;-65
2022/05/21 12:08:46;;;;;;;4.97;1.00;;;;;;;;;;5077586;28;20023;-65
2022/05/21 12:11:34;;;;;;;4.43;0.95;;;;;;;;;;4978581;28;20157;-65
2022/05/21 12:14:20;;;;;;;8.48;1.20;;;;;;;;;;5003346;28;20514;-66
2022/05/21 12:16:55;;;;;;;5.78;1.15;;;;;;;;;;5000458;28;20042;-68
2022/05/21 12:19:46;;;;;;;4.13;0.95;;;;;;;;;;4995202;28;20057;-65
2022/05/21 12:22:35;;;;;;;5.72;1.13;;;;;;;;;;4997889;28;20037;-66
2022/05/21 12:25:04;;;;;;;5.45;1.40;;;;;;;;;;5002280;28;20047;-66
2022/05/21 12:27:35;;;;;;;4.78;1.48;;;;;;;;;;4972513;28;20049;-68
2022/05/21 12:30:06;;;;;;;4.95;1.33;;;;;;;;;;4988567;28;20060;-68
2022/05/21 12:32:40;;;;;;;8.20;1.80;;;;;;;;;;5008071;28;21377;-65
2022/05/21 12:35:09;;;;;;;9.77;2.20;;;;;;;;;;4990379;28;20057;-68
2022/05/21 12:37:58;;;;;;;6.47;1.80;;;;;;;;;;5010249;28;20127;-65
2022/05/21 12:40:29;;;;;;;;;;;;;;;;;;4995458;28;20053;-68
2022/05/21 12:43:18;;;;;;;7.18;1.70;;;;;;;;;;4989964;28;20358;-65
2022/05/21 12:45:48;;;;;;;7.70;1.67;;;;;;;;;;4988056;28;20060;-68
2022/05/21 12:48:19;;;;;;;8.07;1.83;;;;;;;;;;5023463;28;20136;-66
2022/05/21 12:50:53;;;;;;;8.48;1.63;;;;;;;;;;5071757;28;20066;-64
2022/05/21 12:53:39;;;;;;;7.03;1.70;;;;;;;;;;5076454;28;20108;-65
2022/05/21 12:56:33;;;;;;;7.97;1.80;;;;;;;;;;5079304;28;20117;-65
2022/05/21 12:59:14;;;;;;;7.53;1.88;;;;;;;;;;5088936;27;20031;-65
2022/05/21 13:01:51;;;;;;;7.43;1.77;;;;;;;;;;5085590;28;20023;-65
2022/05/21 13:04:23;;;;;;;9.95;1.67;;;;;;;;;;5051667;28;20170;-64
2022/05/21 13:06:53;;;;;;;6.53;1.60;;;;;;;;;;5068001;28;20067;-65
2022/05/21 13:09:24;;;;;;;7.25;1.60;;;;;;;;;;5068731;28;20370;-65
2022/05/21 13:11:59;;;;;;;7.05;1.90;;;;;;;;;;5095278;27;20075;-65
2022/05/21 13:14:33;;;;;;;8.23;1.67;;;;;;;;;;5085524;28;20041;-64
2022/05/21 13:17:01;;;;;;;7.88;1.85;;;;;;;;;;5066109;28;20082;-65
2022/05/21 13:19:41;;;;;;;7.30;1.77;;;;;;;;;;5071966;28;20036;-64
2022/05/21 13:22:16;;;;;;;8.13;1.63;;;;;;;;;;5084702;27;20412;-65
2022/05/21 13:24:49;;;;;;;10.07;2.00;;;;;;;;;;5089686;27;20033;-66
2022/05/21 13:27:20;;;;;;;8.90;1.77;;;;;;;;;;5079912;28;20028;-65
2022/05/21 13:29:49;;;;;;;7.95;1.70;;;;;;;;;;5084332;27;20027;-65
2022/05/21 13:32:30;;;;;;;9.13;1.80;;;;;;;;;;5082303;27;20105;-64
2022/05/21 13:34:58;;;;;;;5.72;1.60;;;;;;;;;;5066802;28;20797;-64
2022/05/21 13:37:34;;;;;;;8.18;1.67;;;;;;;;;;5064121;28;20055;-65
2022/05/21 13:40:21;;;;;;;8.68;2.00;;;;;;;;;;5081807;27;20047;-64
2022/05/21 13:42:52;;;;;;;7.70;1.70;;;;;;;;;;5083821;27;20082;-65
2022/05/21 13:45:34;;;;;;;9.10;2.08;;;;;;;;;;5063445;28;20593;-67
2022/05/21 13:48:12;;;;;;;7.82;1.80;;;;;;;;;;5062991;28;20035;-65
2022/05/21 13:50:38;;;;;;;9.50;2.08;;;;;;;;;;5082512;28;20413;-67
2022/05/21 13:53:11;;;;;;;8.63;1.90;;;;;;;;;;5078353;28;20036;-66
2022/05/21 13:56:00;;;;;;;9.55;2.15;;;;;;;;;;5084581;28;20796;-65
2022/05/21 13:58:40;;;;;;;10.02;2.25;;;;;;;;;;5081295;28;20035;-65
2022/05/21 14:01:21;;;;;;;7.07;1.90;;;;;;;;;;5082446;28;20028;-64
2022/05/21 14:04:05;;;;;;;8.27;2.00;;;;;;;;;;5062995;28;20775;-64
2022/05/21 14:06:41;;;;;;;7.95;2.20;;;;;;;;;;5081507;28;20051;-64
2022/05/21 14:09:17;;;;;;;10.30;2.10;;;;;;;;;;5063434;28;20058;-64
2022/05/21 14:11:52;;;;;;;7.80;1.88;;;;;;;;;;5045784;28;20052;-64
2022/05/21 14:14:20;;;;;;;14.63;2.45;;;;;;;;;;5083425;28;20724;-64
2022/05/21 14:16:49;;;;;;;9.18;2.15;;;;;;;;;;5059705;28;20443;-65
2022/05/21 14:19:24;;;;;;;11.95;2.42;;;;;;;;;;5063885;28;20031;-67
2022/05/21 14:22:06;;;;;;;10.63;2.10;;;;;;;;;;5072763;28;20054;-67
2022/05/21 14:24:47;;;;;;;7.45;2.20;;;;;;;;;;5066770;28;20485;-67
2022/05/21 14:27:19;;;;;;;8.55;2.20;;;;;;;;;;5064109;28;20468;-69
2022/05/21 14:29:58;;;;;;;7.05;1.85;;;;;;;;;;5082479;28;20381;-68
2022/05/21 14:32:41;;;;;;;8.07;1.85;;;;;;;;;;5071332;28;20294;-68
2022/05/21 14:35:14;;;;;;;7.68;1.70;;;;;;;;;;5065133;28;20024;-71
2022/05/21 14:37:41;;;;;;;8.52;1.88;;;;;;;;;;5067453;28;20027;-68
2022/05/21 14:40:12;;;;;;;8.18;2.10;;;;;;;;;;5073510;28;20109;-71
2022/05/21 14:42:40;;;;;;;8.93;1.90;;;;;;;;;;5033891;27;20618;-69
2022/05/21 14:45:21;;;;;;;8.52;2.42;;;;;;;;;;5090959;27;20086;-69
2022/05/21 14:47:52;;;;;;;8.20;1.90;;;;;;;;;;5081365;27;20031;-68
2022/05/21 14:53:14;;;;;;;7.85;1.80;;;;;;;;;;5094513;27;20690;-68
2022/05/21 14:55:42;;;;;;;8.68;2.03;;;;;;;;;;5096211;27;20075;-68
2022/05/21 14:58:11;;;;;;;9.57;2.20;;;;;;;;;;5076895;27;20031;-68
2022/05/21 15:00:41;;;;;;;8.70;1.83;;;;;;;;;;5083840;27;20361;-68
2022/05/21 15:03:12;;;;;;;10.75;2.10;;;;;;;;;;5094726;27;20071;-69
2022/05/21 15:05:44;;;;;;;8.38;1.90;;;;;;;;;;5100705;27;20058;-68
2022/05/21 15:08:24;;;;;;;7.93;2.13;;;;;;;;;;5099749;27;20030;-71
2022/05/21 15:10:52;;;;;;;14.07;2.20;;;;;;;;;;5097250;27;20055;-71
2022/05/21 15:13:20;;;;;;;10.02;2.60;;;;;;;;;;5075245;27;21119;-71
2022/05/21 15:15:48;;;;;;;9.30;2.20;;;;;;;;;;5098197;27;20031;-71
2022/05/21 15:18:16;;;;;;;8.07;2.10;;;;;;;;;;5097498;27;20138;-71
2022/05/21 15:20:47;;;;;;;9.85;1.85;;;;;;;;;;5099414;27;20031;-71
2022/05/21 15:23:14;;;;;;;9.23;1.70;;;;;;;;;;5078391;27;20863;-71
2022/05/21 15:25:44;;;;;;;7.88;1.95;;;;;;;;;;5078995;27;20070;-71
2022/05/21 15:28:10;;;;;;;8.27;2.30;;;;;;;;;;5061060;27;20031;-71
2022/05/21 15:30:38;;;;;;;6.68;1.80;;;;;;;;;;5082681;27;20059;-72
2022/05/21 15:33:06;;;;;;;6.85;2.00;;;;;;;;;;5075609;28;20036;-71
2022/05/21 15:35:33;;;;;;;11.13;2.40;;;;;;;;;;5088294;27;20348;-70
2022/05/21 15:38:00;;;;;;;8.88;2.05;;;;;;;;;;5082329;27;20027;-71
2022/05/21 15:40:30;;;;;;;7.65;1.83;;;;;;;;;;5083012;27;20122;-71
2022/05/21 15:42:58;;;;;;;7.50;1.77;;;;;;;;;;5069477;28;20214;-72
2022/05/21 15:45:31;;;;;;;8.02;1.60;;;;;;;;;;5061490;28;20105;-72
2022/05/21 15:48:02;;;;;;;8.20;1.92;;;;;;;;;;5057845;28;20028;-71
2022/05/21 15:50:31;;;;;;;7.13;2.03;;;;;;;;;;5045119;28;20046;-71